sensor_id;sensor_type;location;lat;lon;timestamp;P1;durP1;ratioP1;P2;durP2;ratioP2
40695;SDS011;40425;51.102;17.208;2022-12-01T00:00:22;55.97;;;29.20;;
40695;SDS011;40425;51.102;17.208;2022-12-01T00:05:22;56.57;;;30.27;;
40695;SDS011;40425;51.102;17.208;2022-12-01T00:10:24;59.03;;;29.63;;
40695;SDS011;40425;51.102;17.208;2022-12-01T00:15:26;52.90;;;29.77;;
40695;SDS011;40425;51.102;17.208;2022-12-01T00:20:29;54.07;;;29.40;;
40695;SDS011;40425;51.102;17.208;2022-12-01T00:25:31;50.93;;;29.00;;
40695;SDS011;40425;51.102;17.208;2022-12-01T00:30:32;56.47;;;29.87;;
40695;SDS011;40425;51.102;17.208;2022-12-01T00:35:33;61.93;;;32.83;;
40695;SDS011;40425;51.102;17.208;2022-12-01T00:40:34;53.43;;;28.27;;
40695;SDS011;40425;51.102;17.208;2022-12-01T00:45:35;48.20;;;26.03;;
40695;SDS011;40425;51.102;17.208;2022-12-01T00:50:35;48.53;;;25.53;;
40695;SDS011;40425;51.102;17.208;2022-12-01T00:55:36;42.07;;;22.10;;
40695;SDS011;40425;51.102;17.208;2022-12-01T01:00:39;53.10;;;25.03;;
40695;SDS011;40425;51.102;17.208;2022-12-01T01:05:42;61.33;;;31.13;;
40695;SDS011;40425;51.102;17.208;2022-12-01T01:10:43;60.10;;;27.63;;
40695;SDS011;40425;51.102;17.208;2022-12-01T01:15:54;66.10;;;31.27;;
40695;SDS011;40425;51.102;17.208;2022-12-01T01:21:01;54.57;;;27.73;;
40695;SDS011;40425;51.102;17.208;2022-12-01T01:26:09;46.87;;;24.33;;
40695;SDS011;40425;51.102;17.208;2022-12-01T01:31:14;54.93;;;28.60;;
40695;SDS011;40425;51.102;17.208;2022-12-01T01:36:19;43.67;;;24.67;;
40695;SDS011;40425;51.102;17.208;2022-12-01T01:41:20;44.80;;;23.80;;
40695;SDS011;40425;51.102;17.208;2022-12-01T01:46:23;36.93;;;21.07;;
40695;SDS011;40425;51.102;17.208;2022-12-01T01:56:46;40.60;;;20.43;;
40695;SDS011;40425;51.102;17.208;2022-12-01T02:01:51;38.77;;;22.00;;
40695;SDS011;40425;51.102;17.208;2022-12-01T02:06:59;44.70;;;22.50;;
40695;SDS011;40425;51.102;17.208;2022-12-01T02:12:07;37.60;;;21.10;;
40695;SDS011;40425;51.102;17.208;2022-12-01T02:28:11;43.40;;;23.20;;
40695;SDS011;40425;51.102;17.208;2022-12-01T02:33:41;44.33;;;23.27;;
40695;SDS011;40425;51.102;17.208;2022-12-01T02:38:57;42.17;;;21.93;;
40695;SDS011;40425;51.102;17.208;2022-12-01T02:44:03;40.55;;;21.55;;
40695;SDS011;40425;51.102;17.208;2022-12-01T02:49:30;42.83;;;22.90;;
40695;SDS011;40425;51.102;17.208;2022-12-01T02:54:35;44.80;;;22.63;;
40695;SDS011;40425;51.102;17.208;2022-12-01T02:59:37;45.93;;;23.93;;
40695;SDS011;40425;51.102;17.208;2022-12-01T03:04:51;47.67;;;24.70;;
40695;SDS011;40425;51.102;17.208;2022-12-01T03:15:25;53.30;;;23.53;;
40695;SDS011;40425;51.102;17.208;2022-12-01T03:20:36;45.47;;;24.20;;
40695;SDS011;40425;51.102;17.208;2022-12-01T03:25:42;46.50;;;23.70;;
40695;SDS011;40425;51.102;17.208;2022-12-01T03:30:47;51.00;;;24.13;;
40695;SDS011;40425;51.102;17.208;2022-12-01T03:35:56;47.03;;;24.13;;
40695;SDS011;40425;51.102;17.208;2022-12-01T03:41:12;48.70;;;24.90;;
40695;SDS011;40425;51.102;17.208;2022-12-01T03:46:18;50.10;;;24.83;;
40695;SDS011;40425;51.102;17.208;2022-12-01T03:56:40;52.40;;;25.37;;
40695;SDS011;40425;51.102;17.208;2022-12-01T04:01:45;51.20;;;26.03;;
40695;SDS011;40425;51.102;17.208;2022-12-01T04:06:47;47.23;;;23.37;;
40695;SDS011;40425;51.102;17.208;2022-12-01T04:11:49;55.77;;;26.33;;
40695;SDS011;40425;51.102;17.208;2022-12-01T04:17:09;54.23;;;26.40;;
40695;SDS011;40425;51.102;17.208;2022-12-01T04:22:09;55.60;;;29.57;;
40695;SDS011;40425;51.102;17.208;2022-12-01T04:27:10;54.60;;;27.60;;
40695;SDS011;40425;51.102;17.208;2022-12-01T04:32:11;57.83;;;27.57;;
40695;SDS011;40425;51.102;17.208;2022-12-01T04:37:12;57.27;;;29.07;;
40695;SDS011;40425;51.102;17.208;2022-12-01T04:42:13;56.30;;;27.67;;
40695;SDS011;40425;51.102;17.208;2022-12-01T04:47:14;55.83;;;27.43;;
40695;SDS011;40425;51.102;17.208;2022-12-01T04:52:15;58.33;;;29.27;;
40695;SDS011;40425;51.102;17.208;2022-12-01T04:57:16;56.53;;;29.70;;
40695;SDS011;40425;51.102;17.208;2022-12-01T05:02:17;59.47;;;29.00;;
40695;SDS011;40425;51.102;17.208;2022-12-01T05:07:18;57.40;;;29.23;;
40695;SDS011;40425;51.102;17.208;2022-12-01T05:12:18;58.90;;;30.43;;
40695;SDS011;40425;51.102;17.208;2022-12-01T05:17:19;58.40;;;28.70;;
40695;SDS011;40425;51.102;17.208;2022-12-01T05:22:20;60.37;;;29.83;;
40695;SDS011;40425;51.102;17.208;2022-12-01T05:27:21;56.43;;;28.70;;
40695;SDS011;40425;51.102;17.208;2022-12-01T05:32:22;59.33;;;28.63;;
40695;SDS011;40425;51.102;17.208;2022-12-01T05:37:23;55.70;;;29.43;;
40695;SDS011;40425;51.102;17.208;2022-12-01T05:42:24;58.20;;;29.43;;
40695;SDS011;40425;51.102;17.208;2022-12-01T05:47:24;61.23;;;31.60;;
40695;SDS011;40425;51.102;17.208;2022-12-01T05:52:25;51.67;;;26.43;;
40695;SDS011;40425;51.102;17.208;2022-12-01T05:57:26;58.57;;;28.77;;
40695;SDS011;40425;51.102;17.208;2022-12-01T06:02:27;60.10;;;27.73;;
40695;SDS011;40425;51.102;17.208;2022-12-01T06:07:28;57.93;;;30.83;;
40695;SDS011;40425;51.102;17.208;2022-12-01T06:12:29;66.23;;;31.40;;
40695;SDS011;40425;51.102;17.208;2022-12-01T06:17:29;62.10;;;31.40;;
40695;SDS011;40425;51.102;17.208;2022-12-01T06:22:30;63.30;;;31.80;;
40695;SDS011;40425;51.102;17.208;2022-12-01T06:27:31;61.33;;;31.03;;
40695;SDS011;40425;51.102;17.208;2022-12-01T06:32:32;66.30;;;33.00;;
40695;SDS011;40425;51.102;17.208;2022-12-01T06:37:33;57.93;;;30.17;;
40695;SDS011;40425;51.102;17.208;2022-12-01T06:42:34;66.57;;;34.23;;
40695;SDS011;40425;51.102;17.208;2022-12-01T06:47:35;64.87;;;33.43;;
40695;SDS011;40425;51.102;17.208;2022-12-01T06:52:36;66.23;;;32.93;;
40695;SDS011;40425;51.102;17.208;2022-12-01T06:57:37;65.97;;;31.73;;
40695;SDS011;40425;51.102;17.208;2022-12-01T07:02:38;57.70;;;31.83;;
40695;SDS011;40425;51.102;17.208;2022-12-01T07:07:39;63.73;;;31.67;;
40695;SDS011;40425;51.102;17.208;2022-12-01T07:12:40;59.13;;;30.77;;
40695;SDS011;40425;51.102;17.208;2022-12-01T07:17:41;60.30;;;29.47;;
40695;SDS011;40425;51.102;17.208;2022-12-01T07:22:41;59.77;;;29.63;;
40695;SDS011;40425;51.102;17.208;2022-12-01T07:27:42;60.00;;;30.07;;
40695;SDS011;40425;51.102;17.208;2022-12-01T07:32:43;58.13;;;29.53;;
40695;SDS011;40425;51.102;17.208;2022-12-01T07:37:44;57.87;;;29.17;;
40695;SDS011;40425;51.102;17.208;2022-12-01T07:42:45;58.07;;;31.00;;
40695;SDS011;40425;51.102;17.208;2022-12-01T07:47:46;53.53;;;28.40;;
40695;SDS011;40425;51.102;17.208;2022-12-01T07:52:49;58.60;;;29.77;;
40695;SDS011;40425;51.102;17.208;2022-12-01T07:57:51;53.07;;;28.70;;
40695;SDS011;40425;51.102;17.208;2022-12-01T08:02:52;64.23;;;32.30;;
40695;SDS011;40425;51.102;17.208;2022-12-01T08:07:53;61.77;;;32.23;;
40695;SDS011;40425;51.102;17.208;2022-12-01T08:12:54;54.17;;;29.07;;
40695;SDS011;40425;51.102;17.208;2022-12-01T08:17:55;56.53;;;29.17;;
40695;SDS011;40425;51.102;17.208;2022-12-01T08:22:59;55.20;;;28.73;;
40695;SDS011;40425;51.102;17.208;2022-12-01T08:28:01;61.60;;;30.33;;
40695;SDS011;40425;51.102;17.208;2022-12-01T08:33:02;57.73;;;30.77;;
40695;SDS011;40425;51.102;17.208;2022-12-01T08:38:03;57.90;;;29.73;;
40695;SDS011;40425;51.102;17.208;2022-12-01T08:43:04;65.27;;;29.07;;
40695;SDS011;40425;51.102;17.208;2022-12-01T08:48:05;57.63;;;29.03;;
40695;SDS011;40425;51.102;17.208;2022-12-01T08:53:06;55.27;;;30.13;;
40695;SDS011;40425;51.102;17.208;2022-12-01T08:58:07;57.07;;;28.87;;
40695;SDS011;40425;51.102;17.208;2022-12-01T09:03:09;56.93;;;30.30;;
40695;SDS011;40425;51.102;17.208;2022-12-01T09:08:10;56.50;;;30.90;;
40695;SDS011;40425;51.102;17.208;2022-12-01T09:13:29;60.27;;;31.00;;
40695;SDS011;40425;51.102;17.208;2022-12-01T09:18:31;61.90;;;32.13;;
40695;SDS011;40425;51.102;17.208;2022-12-01T09:23:32;58.03;;;31.50;;
40695;SDS011;40425;51.102;17.208;2022-12-01T09:28:33;59.53;;;32.60;;
40695;SDS011;40425;51.102;17.208;2022-12-01T09:33:36;57.33;;;30.03;;
40695;SDS011;40425;51.102;17.208;2022-12-01T09:38:38;48.70;;;26.70;;
40695;SDS011;40425;51.102;17.208;2022-12-01T09:43:40;41.37;;;24.33;;
40695;SDS011;40425;51.102;17.208;2022-12-01T09:48:47;46.90;;;26.00;;
40695;SDS011;40425;51.102;17.208;2022-12-01T09:53:51;38.87;;;21.57;;
40695;SDS011;40425;51.102;17.208;2022-12-01T09:59:01;40.13;;;23.03;;
40695;SDS011;40425;51.102;17.208;2022-12-01T10:04:09;40.00;;;22.90;;
40695;SDS011;40425;51.102;17.208;2022-12-01T10:09:36;40.63;;;22.37;;
40695;SDS011;40425;51.102;17.208;2022-12-01T10:14:47;40.50;;;22.93;;
40695;SDS011;40425;51.102;17.208;2022-12-01T10:25:33;43.60;;;21.90;;
40695;SDS011;40425;51.102;17.208;2022-12-01T10:30:22;37.60;;;20.27;;
40695;SDS011;40425;51.102;17.208;2022-12-01T10:35:24;34.43;;;19.93;;
40695;SDS011;40425;51.102;17.208;2022-12-01T10:40:35;37.17;;;21.37;;
40695;SDS011;40425;51.102;17.208;2022-12-01T10:45:39;37.77;;;21.60;;
40695;SDS011;40425;51.102;17.208;2022-12-01T10:50:43;37.17;;;20.93;;
40695;SDS011;40425;51.102;17.208;2022-12-01T10:56:16;38.63;;;21.10;;
40695;SDS011;40425;51.102;17.208;2022-12-01T11:06:25;40.33;;;21.57;;
40695;SDS011;40425;51.102;17.208;2022-12-01T11:16:38;36.50;;;20.93;;
40695;SDS011;40425;51.102;17.208;2022-12-01T11:21:52;37.93;;;22.63;;
40695;SDS011;40425;51.102;17.208;2022-12-01T11:26:58;40.37;;;21.43;;
40695;SDS011;40425;51.102;17.208;2022-12-01T11:32:00;37.60;;;21.50;;
40695;SDS011;40425;51.102;17.208;2022-12-01T11:37:05;37.17;;;22.83;;
40695;SDS011;40425;51.102;17.208;2022-12-01T11:47:29;42.13;;;23.13;;
40695;SDS011;40425;51.102;17.208;2022-12-01T11:57:39;38.37;;;22.13;;
40695;SDS011;40425;51.102;17.208;2022-12-01T12:25:06;31.33;;;16.53;;
40695;SDS011;40425;51.102;17.208;2022-12-01T12:30:04;32.37;;;17.83;;
40695;SDS011;40425;51.102;17.208;2022-12-01T12:40:49;30.27;;;14.77;;
40695;SDS011;40425;51.102;17.208;2022-12-01T12:46:32;30.03;;;16.77;;
40695;SDS011;40425;51.102;17.208;2022-12-01T12:51:57;33.03;;;17.67;;
40695;SDS011;40425;51.102;17.208;2022-12-01T12:57:19;34.13;;;17.77;;
40695;SDS011;40425;51.102;17.208;2022-12-01T13:08:01;28.60;;;16.90;;
40695;SDS011;40425;51.102;17.208;2022-12-01T13:18:41;22.67;;;14.40;;
40695;SDS011;40425;51.102;17.208;2022-12-01T13:23:46;28.73;;;17.63;;
40695;SDS011;40425;51.102;17.208;2022-12-01T13:28:52;26.10;;;14.93;;
40695;SDS011;40425;51.102;17.208;2022-12-01T13:34:00;26.87;;;14.83;;
40695;SDS011;40425;51.102;17.208;2022-12-01T13:39:05;33.43;;;17.90;;
40695;SDS011;40425;51.102;17.208;2022-12-01T13:44:21;38.27;;;20.77;;
40695;SDS011;40425;51.102;17.208;2022-12-01T13:49:36;38.97;;;22.10;;
40695;SDS011;40425;51.102;17.208;2022-12-01T13:54:58;34.80;;;19.90;;
40695;SDS011;40425;51.102;17.208;2022-12-01T14:10:39;27.23;;;15.83;;
40695;SDS011;40425;51.102;17.208;2022-12-01T14:15:40;24.67;;;15.37;;
40695;SDS011;40425;51.102;17.208;2022-12-01T14:20:43;29.53;;;17.37;;
40695;SDS011;40425;51.102;17.208;2022-12-01T14:26:00;23.23;;;15.23;;
40695;SDS011;40425;51.102;17.208;2022-12-01T14:31:13;23.97;;;14.40;;
40695;SDS011;40425;51.102;17.208;2022-12-01T14:36:35;20.13;;;13.10;;
40695;SDS011;40425;51.102;17.208;2022-12-01T14:41:42;22.90;;;13.60;;
40695;SDS011;40425;51.102;17.208;2022-12-01T14:52:15;27.13;;;15.13;;
40695;SDS011;40425;51.102;17.208;2022-12-01T14:57:33;26.03;;;15.87;;
40695;SDS011;40425;51.102;17.208;2022-12-01T15:02:42;31.03;;;15.43;;
40695;SDS011;40425;51.102;17.208;2022-12-01T15:07:54;32.23;;;18.87;;
40695;SDS011;40425;51.102;17.208;2022-12-01T15:12:56;29.57;;;16.63;;
40695;SDS011;40425;51.102;17.208;2022-12-01T15:17:57;30.20;;;16.37;;
40695;SDS011;40425;51.102;17.208;2022-12-01T15:23:01;27.90;;;15.90;;
40695;SDS011;40425;51.102;17.208;2022-12-01T15:28:12;25.95;;;15.50;;
40695;SDS011;40425;51.102;17.208;2022-12-01T15:33:19;23.83;;;14.50;;
40695;SDS011;40425;51.102;17.208;2022-12-01T15:38:27;21.45;;;13.77;;
40695;SDS011;40425;51.102;17.208;2022-12-01T15:43:34;19.60;;;12.33;;
40695;SDS011;40425;51.102;17.208;2022-12-01T15:48:37;21.60;;;12.13;;
40695;SDS011;40425;51.102;17.208;2022-12-01T15:53:39;24.27;;;15.07;;
40695;SDS011;40425;51.102;17.208;2022-12-01T15:58:57;23.10;;;14.17;;
40695;SDS011;40425;51.102;17.208;2022-12-01T16:04:19;19.57;;;11.63;;
40695;SDS011;40425;51.102;17.208;2022-12-01T16:09:27;17.93;;;11.30;;
40695;SDS011;40425;51.102;17.208;2022-12-01T16:14:36;18.30;;;11.43;;
40695;SDS011;40425;51.102;17.208;2022-12-01T16:25:29;23.47;;;13.50;;
40695;SDS011;40425;51.102;17.208;2022-12-01T16:30:37;17.80;;;11.27;;
40695;SDS011;40425;51.102;17.208;2022-12-01T16:35:38;20.13;;;11.90;;
40695;SDS011;40425;51.102;17.208;2022-12-01T16:40:40;23.30;;;13.27;;
40695;SDS011;40425;51.102;17.208;2022-12-01T16:45:42;24.10;;;14.03;;
40695;SDS011;40425;51.102;17.208;2022-12-01T16:50:45;21.30;;;14.67;;
40695;SDS011;40425;51.102;17.208;2022-12-01T16:55:54;24.77;;;13.70;;
40695;SDS011;40425;51.102;17.208;2022-12-01T17:00:56;21.83;;;13.13;;
40695;SDS011;40425;51.102;17.208;2022-12-01T17:05:58;19.50;;;12.63;;
40695;SDS011;40425;51.102;17.208;2022-12-01T17:11:03;24.10;;;14.40;;
40695;SDS011;40425;51.102;17.208;2022-12-01T17:16:06;16.73;;;10.93;;
40695;SDS011;40425;51.102;17.208;2022-12-01T17:21:09;25.80;;;12.97;;
40695;SDS011;40425;51.102;17.208;2022-12-01T17:26:12;13.47;;;8.57;;
40695;SDS011;40425;51.102;17.208;2022-12-01T17:31:14;16.33;;;9.83;;
40695;SDS011;40425;51.102;17.208;2022-12-01T17:36:15;13.43;;;10.07;;
40695;SDS011;40425;51.102;17.208;2022-12-01T17:41:18;22.33;;;12.87;;
40695;SDS011;40425;51.102;17.208;2022-12-01T17:46:20;12.20;;;8.53;;
40695;SDS011;40425;51.102;17.208;2022-12-01T17:51:22;12.70;;;8.80;;
40695;SDS011;40425;51.102;17.208;2022-12-01T17:56:23;11.60;;;8.00;;
40695;SDS011;40425;51.102;17.208;2022-12-01T18:01:24;12.07;;;8.33;;
40695;SDS011;40425;51.102;17.208;2022-12-01T18:06:25;11.80;;;7.90;;
40695;SDS011;40425;51.102;17.208;2022-12-01T18:11:26;14.17;;;8.17;;
40695;SDS011;40425;51.102;17.208;2022-12-01T18:16:28;15.37;;;9.43;;
40695;SDS011;40425;51.102;17.208;2022-12-01T18:21:30;11.73;;;7.60;;
40695;SDS011;40425;51.102;17.208;2022-12-01T18:26:31;16.33;;;9.47;;
40695;SDS011;40425;51.102;17.208;2022-12-01T18:31:33;15.03;;;10.53;;
40695;SDS011;40425;51.102;17.208;2022-12-01T18:36:35;15.30;;;9.53;;
40695;SDS011;40425;51.102;17.208;2022-12-01T18:41:37;15.90;;;10.87;;
40695;SDS011;40425;51.102;17.208;2022-12-01T18:46:38;14.07;;;9.57;;
40695;SDS011;40425;51.102;17.208;2022-12-01T18:51:39;14.63;;;9.93;;
40695;SDS011;40425;51.102;17.208;2022-12-01T18:56:40;12.13;;;8.67;;
40695;SDS011;40425;51.102;17.208;2022-12-01T19:01:42;18.87;;;11.40;;
40695;SDS011;40425;51.102;17.208;2022-12-01T19:06:44;15.37;;;9.80;;
40695;SDS011;40425;51.102;17.208;2022-12-01T19:11:45;15.30;;;9.83;;
40695;SDS011;40425;51.102;17.208;2022-12-01T19:16:46;15.70;;;9.97;;
40695;SDS011;40425;51.102;17.208;2022-12-01T19:21:47;13.97;;;9.43;;
40695;SDS011;40425;51.102;17.208;2022-12-01T19:26:49;16.60;;;10.73;;
40695;SDS011;40425;51.102;17.208;2022-12-01T19:31:50;15.37;;;8.97;;
40695;SDS011;40425;51.102;17.208;2022-12-01T19:36:51;17.47;;;9.70;;
40695;SDS011;40425;51.102;17.208;2022-12-01T19:41:52;19.70;;;11.23;;
40695;SDS011;40425;51.102;17.208;2022-12-01T19:46:55;24.33;;;12.47;;
40695;SDS011;40425;51.102;17.208;2022-12-01T19:51:56;14.47;;;9.80;;
40695;SDS011;40425;51.102;17.208;2022-12-01T19:56:57;13.77;;;8.97;;
40695;SDS011;40425;51.102;17.208;2022-12-01T20:01:58;12.63;;;8.77;;
40695;SDS011;40425;51.102;17.208;2022-12-01T20:06:59;15.30;;;8.87;;
40695;SDS011;40425;51.102;17.208;2022-12-01T20:12:00;15.57;;;9.80;;
40695;SDS011;40425;51.102;17.208;2022-12-01T20:17:01;16.67;;;10.30;;
40695;SDS011;40425;51.102;17.208;2022-12-01T20:22:02;19.70;;;11.67;;
40695;SDS011;40425;51.102;17.208;2022-12-01T20:27:03;18.20;;;10.73;;
40695;SDS011;40425;51.102;17.208;2022-12-01T20:32:04;16.43;;;11.13;;
40695;SDS011;40425;51.102;17.208;2022-12-01T20:37:05;16.73;;;11.47;;
40695;SDS011;40425;51.102;17.208;2022-12-01T20:42:06;18.73;;;11.63;;
40695;SDS011;40425;51.102;17.208;2022-12-01T20:47:08;23.40;;;14.40;;
40695;SDS011;40425;51.102;17.208;2022-12-01T20:52:08;16.80;;;11.70;;
40695;SDS011;40425;51.102;17.208;2022-12-01T20:57:09;17.20;;;11.00;;
40695;SDS011;40425;51.102;17.208;2022-12-01T21:02:10;18.60;;;11.50;;
40695;SDS011;40425;51.102;17.208;2022-12-01T21:07:11;18.83;;;11.53;;
40695;SDS011;40425;51.102;17.208;2022-12-01T21:12:14;19.40;;;10.97;;
40695;SDS011;40425;51.102;17.208;2022-12-01T21:17:38;19.50;;;12.40;;
40695;SDS011;40425;51.102;17.208;2022-12-01T21:22:48;20.77;;;12.70;;
40695;SDS011;40425;51.102;17.208;2022-12-01T21:27:50;22.63;;;14.27;;
40695;SDS011;40425;51.102;17.208;2022-12-01T21:32:54;21.50;;;12.83;;
40695;SDS011;40425;51.102;17.208;2022-12-01T21:38:11;22.50;;;13.17;;
40695;SDS011;40425;51.102;17.208;2022-12-01T21:43:14;22.20;;;11.80;;
40695;SDS011;40425;51.102;17.208;2022-12-01T21:48:23;21.48;;;13.18;;
40695;SDS011;40425;51.102;17.208;2022-12-01T21:53:35;22.43;;;14.40;;
40695;SDS011;40425;51.102;17.208;2022-12-01T21:58:37;23.93;;;14.57;;
40695;SDS011;40425;51.102;17.208;2022-12-01T22:03:40;20.40;;;14.83;;
40695;SDS011;40425;51.102;17.208;2022-12-01T22:08:44;22.97;;;15.03;;
40695;SDS011;40425;51.102;17.208;2022-12-01T22:13:49;23.37;;;15.90;;
40695;SDS011;40425;51.102;17.208;2022-12-01T22:18:54;23.13;;;15.40;;
40695;SDS011;40425;51.102;17.208;2022-12-01T22:29:01;21.03;;;14.80;;
40695;SDS011;40425;51.102;17.208;2022-12-01T22:34:21;22.15;;;13.20;;
40695;SDS011;40425;51.102;17.208;2022-12-01T22:39:24;24.20;;;16.23;;
40695;SDS011;40425;51.102;17.208;2022-12-01T22:44:33;29.57;;;18.27;;
40695;SDS011;40425;51.102;17.208;2022-12-01T22:49:33;32.73;;;18.77;;
40695;SDS011;40425;51.102;17.208;2022-12-01T22:54:38;28.37;;;18.07;;
40695;SDS011;40425;51.102;17.208;2022-12-01T22:59:43;26.57;;;16.43;;
40695;SDS011;40425;51.102;17.208;2022-12-01T23:04:47;27.33;;;17.03;;
40695;SDS011;40425;51.102;17.208;2022-12-01T23:09:50;30.67;;;18.67;;
40695;SDS011;40425;51.102;17.208;2022-12-01T23:14:53;31.97;;;18.17;;
40695;SDS011;40425;51.102;17.208;2022-12-01T23:20:09;29.27;;;18.53;;
40695;SDS011;40425;51.102;17.208;2022-12-01T23:25:17;31.47;;;19.70;;
40695;SDS011;40425;51.102;17.208;2022-12-01T23:30:20;31.73;;;19.53;;
40695;SDS011;40425;51.102;17.208;2022-12-01T23:35:21;26.17;;;16.67;;
40695;SDS011;40425;51.102;17.208;2022-12-01T23:40:25;31.33;;;18.27;;
40695;SDS011;40425;51.102;17.208;2022-12-01T23:45:35;29.47;;;18.10;;
40695;SDS011;40425;51.102;17.208;2022-12-01T23:50:36;22.13;;;13.67;;
40695;SDS011;40425;51.102;17.208;2022-12-01T23:55:37;17.23;;;10.33;;
